»·PEaware :: SWA350 KLAS-KSAN

SWA350 :: KLAS-KSAN

FLIGHT INFORMATION

Flight Status: Arrived
Operator:
Southwest Airlines
More flights by this operator :: More flights under this callsign
Pilot: Jeff H. (11722)
Aircraft: BOEING 737-700
(B737)
More flights by this aircraft type
Origin: KLAS McCarran Intl
United States
Destination: KSAN San Diego Intl-Lindbergh
United States
More flights between these airports :: More routes between these airports
Route: +BOACH8 LVELL LUCKI1
File this flight plan on PilotEdge
Remarks:
Altitude:
(Current/Filed)
28,000ft
Speed:
(Current/Filed)
410kts
Departed: 23-May-20 06:48 PM
Arrived: 23-May-20 07:31 PM
Distance/Time
Traveled:
225nm/0:43
Distance/Time
To Go:
Arrived

Flight Plot

Page will automatically refresh every two minutes.

Flight plan parsing failed; only flown route is shown


Map Options




Map Legend


Flown Route
Filed Route
Departure Airport
Arrival Airport
Navaid (VOR, NDB)
Fix

Horizontal Profiles

Position Reports

Time Latitude Longitude Heading Altitude Ground
Speed
23-May-20 18:28 36.079793 -115.145848 335 2093ft 0kts
23-May-20 18:29 36.079793 -115.145848 335 2093ft 0kts
23-May-20 18:30 36.079793 -115.145848 335 2093ft 0kts
23-May-20 18:31 36.079793 -115.145848 335 2093ft 0kts
23-May-20 18:32 36.079793 -115.145848 335 2093ft 0kts
23-May-20 18:33 36.079793 -115.145848 335 2093ft 0kts
23-May-20 18:34 36.079793 -115.145848 335 2093ft 0kts
23-May-20 18:35 36.079793 -115.145848 335 2093ft 0kts
23-May-20 18:36 36.079793 -115.145848 335 2093ft 0kts
23-May-20 18:37 36.079793 -115.145848 335 2093ft 0kts
23-May-20 18:38 36.079793 -115.145848 335 2093ft 0kts
23-May-20 18:39 36.079410 -115.145465 284 2093ft 2kts
23-May-20 18:40 36.079670 -115.144874 193 2091ft 2kts
23-May-20 18:41 36.079815 -115.144858 179 2091ft 0kts
23-May-20 18:42 36.079815 -115.144858 179 2091ft 0kts
23-May-20 18:43 36.078281 -115.143583 92 2089ft 15kts
23-May-20 18:44 36.078436 -115.136302 91 2067ft 27kts
23-May-20 18:45 36.078300 -115.125632 88 2040ft 34kts
23-May-20 18:46 36.077813 -115.122007 132 2036ft 3kts
23-May-20 18:47 36.076334 -115.143463 269 2371ft 195kts
23-May-20 18:48 36.068506 -115.215104 245 5773ft 212kts
23-May-20 18:49 36.023065 -115.275153 209 6915ft 284kts
23-May-20 18:50 35.946301 -115.305033 186 8908ft 299kts
23-May-20 18:51 35.860317 -115.314348 181 10921ft 346kts
23-May-20 18:52 35.757742 -115.303913 175 12911ft 381kts
23-May-20 18:53 35.650455 -115.295505 182 14905ft 396kts
23-May-20 18:54 35.538112 -115.300397 182 17135ft 418kts
23-May-20 18:55 35.418456 -115.304988 182 18983ft 438kts
23-May-20 18:56 35.296884 -115.309759 182 18978ft 437kts
23-May-20 18:57 35.173420 -115.314543 183 20956ft 458kts
23-May-20 18:58 35.042777 -115.319572 183 22996ft 480kts
23-May-20 18:59 34.910113 -115.324761 185 25021ft 477kts
23-May-20 19:00 34.777760 -115.336545 197 27019ft 482kts
23-May-20 19:01 34.650527 -115.388029 204 27864ft 482kts
23-May-20 19:02 34.524397 -115.443251 204 27964ft 483kts
23-May-20 19:03 34.398088 -115.498275 204 27972ft 485kts
23-May-20 19:04 34.277177 -115.564960 217 27968ft 475kts
23-May-20 19:05 34.158552 -115.639411 206 27971ft 480kts
23-May-20 19:06 34.033725 -115.698329 205 27937ft 482kts
23-May-20 19:07 33.908987 -115.757068 206 27786ft 481kts
23-May-20 19:08 33.790958 -115.815085 206 25789ft 434kts
23-May-20 19:09 33.681376 -115.866880 205 23870ft 417kts
23-May-20 19:10 33.573476 -115.917600 208 23772ft 418kts
23-May-20 19:11 33.486463 -115.998415 235 22855ft 377kts
23-May-20 19:12 33.426621 -116.097210 239 20857ft 372kts
23-May-20 19:13 33.368580 -116.197084 239 18893ft 357kts
23-May-20 19:14 33.293607 -116.276016 210 17528ft 367kts
23-May-20 19:15 33.204324 -116.328282 209 15417ft 350kts
23-May-20 19:16 33.118812 -116.378317 208 13310ft 335kts
23-May-20 19:17 33.037439 -116.425827 208 11990ft 324kts
23-May-20 19:18 32.965476 -116.484580 222 11603ft 297kts
23-May-20 19:20 32.903741 -116.547202 222 9887ft 287kts
23-May-20 19:21 32.844331 -116.607043 221 8685ft 276kts
23-May-20 19:22 32.788015 -116.663681 221 7988ft 250kts
23-May-20 19:23 32.749155 -116.730281 241 6441ft 244kts
23-May-20 19:24 32.717618 -116.797012 241 6062ft 228kts
23-May-20 19:25 32.692530 -116.867364 257 5105ft 234kts
23-May-20 19:26 32.691677 -116.939245 273 4224ft 208kts
23-May-20 19:27 32.695249 -117.003155 274 3251ft 181kts
23-May-20 19:28 32.702031 -117.059507 286 2302ft 172kts
23-May-20 19:29 32.715024 -117.113032 286 1269ft 160kts
23-May-20 19:30 32.726599 -117.161607 288 425ft 154kts
23-May-20 19:31 32.735276 -117.196636 287 17ft 19kts
23-May-20 19:32 32.734991 -117.198521 245 17ft 0kts
23-May-20 19:33 32.733806 -117.198583 176 17ft 0kts

Navigation Log

Ident Type
Flight plan parsing failed, navigation log unavailable